Weather at Pittsburgh International Airport

Public forecast

Using degrees Fahrenheit for public forecast. Weather courtesy of forecast.io.

Current aviation weather report (METAR) for Pittsburgh International Airport

Retrieved 2021/07/24 18:51 UTC (51 minutes ago):

KPIT 241851Z 18006KT 10SM FEW065 SCT100 OVC220 27/17 A3004 RMK AO2 SLP171 T02670172

Aviation forecast (TAF) for Pittsburgh International Airport

Retrieved 2021/07/24 18:22 UTC (1 hour ago):

TAF KPIT 241720Z 2418/2524 20007KT P6SM SCT050 OVC200 FM242000 20007KT P6SM OVC200 FM250800 22005KT P6SM VCSH BKN040 TEMPO 2509/2513 -SHRA BKN035 FM251500 25011KT P6SM BKN050 FM251900 28007KT P6SM VCTS BKN040CB